createdAt,value
2018-04-29T00:01:01.277Z,12.60
2018-04-29T00:03:30.086Z,12.60
2018-04-29T00:05:58.537Z,12.60
2018-04-29T00:08:26.199Z,12.30
2018-04-29T00:10:54.639Z,12.60
2018-04-29T00:13:22.730Z,12.50
2018-04-29T00:15:50.409Z,12.30
2018-04-29T00:18:18.461Z,12.50
2018-04-29T00:20:46.164Z,12.20
2018-04-29T00:23:13.866Z,12.30
2018-04-29T00:25:42.308Z,12.40
2018-04-29T00:28:11.805Z,12.40
2018-04-29T00:30:39.848Z,12.50
2018-04-29T00:33:10.593Z,12.20
2018-04-29T00:35:38.657Z,12.50
2018-04-29T00:38:07.163Z,12.40
2018-04-29T00:40:34.823Z,12.90
2018-04-29T00:43:02.512Z,12.50
2018-04-29T00:45:30.973Z,12.50
2018-04-29T00:48:00.032Z,12.80
2018-04-29T00:50:28.137Z,12.80
2018-04-29T00:53:00.397Z,12.50
2018-04-29T00:55:28.534Z,12.50
2018-04-29T00:57:56.662Z,12.40
2018-04-29T01:00:25.184Z,12.40
2018-04-29T01:02:54.383Z,12.30
2018-04-29T01:05:22.805Z,12.30
2018-04-29T01:07:52.541Z,12.20
2018-04-29T01:10:20.971Z,12.30
2018-04-29T01:12:50.445Z,12.30
2018-04-29T01:15:18.118Z,12.20
2018-04-29T01:17:45.803Z,12.00
2018-04-29T01:20:13.498Z,12.30
2018-04-29T01:22:41.943Z,12.20
2018-04-29T01:25:09.630Z,12.00
2018-04-29T01:27:38.301Z,12.40
2018-04-29T01:30:06.538Z,12.20
2018-04-29T01:32:47.081Z,12.20
2018-04-29T01:35:15.522Z,12.10
2018-04-29T01:37:48.079Z,12.00
2018-04-29T01:40:16.529Z,11.90
2018-04-29T01:42:45.122Z,11.90
2018-04-29T01:45:12.820Z,11.50
2018-04-29T01:47:42.545Z,11.40
2018-04-29T01:50:10.220Z,11.80
2018-04-29T01:52:39.667Z,11.50
2018-04-29T01:55:07.691Z,11.50
2018-04-29T01:57:36.471Z,11.40
2018-04-29T02:00:04.527Z,11.30
2018-04-29T02:02:33.173Z,11.20
2018-04-29T02:05:00.884Z,11.60
2018-04-29T02:07:31.087Z,11.50
2018-04-29T02:09:59.139Z,11.20
2018-04-29T02:12:28.568Z,11.30
2018-04-29T02:14:56.292Z,11.70
2018-04-29T02:17:23.985Z,11.00
2018-04-29T02:19:52.414Z,11.20
2018-04-29T02:22:22.893Z,11.10
2018-04-29T02:24:50.950Z,11.10
2018-04-29T02:27:20.961Z,10.90
2018-04-29T02:29:49.396Z,10.90
2018-04-29T02:34:49.072Z,10.90
2018-04-29T02:37:17.786Z,11.00
2018-04-29T02:39:45.435Z,10.60
2018-04-29T02:42:13.491Z,10.50
2018-04-29T02:44:41.912Z,10.60
2018-04-29T02:47:10.654Z,10.70
2018-04-29T02:49:38.681Z,10.90
2018-04-29T02:52:12.627Z,10.50
2018-04-29T02:54:40.314Z,10.30
2018-04-29T02:57:09.989Z,10.50
2018-04-29T02:59:37.683Z,10.60
2018-04-29T03:02:06.159Z,10.40
2018-04-29T03:04:34.157Z,10.20
2018-04-29T03:07:02.200Z,10.30
2018-04-29T03:09:31.017Z,10.20
2018-04-29T03:11:58.742Z,9.90
2018-04-29T03:14:26.402Z,9.90
2018-04-29T03:16:55.932Z,10.00
2018-04-29T03:19:24.323Z,9.90
2018-04-29T03:21:52.963Z,9.90
2018-04-29T03:24:21.083Z,9.90
2018-04-29T03:26:49.757Z,9.70
2018-04-29T03:29:17.861Z,9.80
2018-04-29T03:31:50.045Z,9.80
2018-04-29T03:34:17.731Z,9.60
2018-04-29T03:36:50.945Z,9.60
2018-04-29T03:39:18.603Z,9.90
2018-04-29T03:41:46.244Z,9.80
2018-04-29T03:44:14.939Z,9.90
2018-04-29T03:46:42.600Z,9.60
2018-04-29T03:49:12.295Z,9.70
2018-04-29T03:51:40.728Z,9.70
2018-04-29T03:54:08.796Z,9.50
2018-04-29T03:56:37.238Z,9.50
2018-04-29T03:59:17.863Z,9.40
2018-04-29T04:01:57.702Z,9.60
2018-04-29T04:04:26.090Z,9.40
2018-04-29T04:07:06.927Z,9.10
2018-04-29T04:09:34.569Z,9.20
2018-04-29T04:12:04.663Z,9.30
2018-04-29T04:14:33.092Z,9.20
2018-04-29T04:17:01.522Z,9.20
2018-04-29T04:19:31.128Z,9.20
2018-04-29T04:21:58.794Z,9.30
2018-04-29T04:24:26.849Z,9.10
2018-04-29T04:26:55.570Z,9.20
2018-04-29T04:29:23.956Z,9.10
2018-04-29T04:31:51.637Z,9.30
2018-04-29T04:34:19.285Z,9.00
2018-04-29T04:36:49.477Z,9.10
2018-04-29T04:39:17.122Z,9.50
2018-04-29T04:41:45.548Z,9.20
2018-04-29T04:44:13.975Z,9.30
2018-04-29T04:46:41.681Z,9.20
2018-04-29T04:49:09.369Z,9.50
2018-04-29T04:51:37.817Z,9.40
2018-04-29T04:54:05.480Z,9.60
2018-04-29T04:56:34.159Z,9.60
2018-04-29T04:59:01.817Z,9.60
2018-04-29T05:01:30.942Z,9.70
2018-04-29T05:03:59.371Z,9.70
2018-04-29T05:06:29.058Z,10.00
2018-04-29T05:11:27.285Z,10.10
2018-04-29T05:13:55.786Z,10.20
2018-04-29T05:16:23.858Z,10.20
2018-04-29T05:18:51.969Z,10.40
2018-04-29T05:21:22.105Z,10.50
2018-04-29T05:23:49.735Z,10.70
2018-04-29T05:26:17.805Z,10.70
2018-04-29T05:28:45.542Z,10.80
2018-04-29T05:31:14.676Z,10.70
2018-04-29T05:33:43.214Z,11.00
2018-04-29T05:36:11.673Z,11.10
2018-04-29T05:38:39.334Z,11.00
2018-04-29T05:41:08.542Z,11.50
2018-04-29T05:43:36.181Z,11.30
2018-04-29T05:46:03.851Z,11.40
2018-04-29T05:48:31.532Z,11.80
2018-04-29T05:51:01.270Z,11.90
2018-04-29T05:53:29.917Z,11.70
2018-04-29T05:55:57.609Z,11.80
2018-04-29T05:58:31.175Z,11.90
2018-04-29T06:00:58.833Z,11.90
2018-04-29T06:03:27.528Z,11.80
2018-04-29T06:05:55.242Z,12.20
2018-04-29T06:08:23.875Z,12.10
2018-04-29T06:10:52.306Z,12.30
2018-04-29T06:13:21.183Z,12.30
2018-04-29T06:15:48.881Z,12.90
2018-04-29T06:18:17.485Z,12.50
2018-04-29T06:20:46.233Z,12.90
2018-04-29T06:23:20.419Z,12.70
2018-04-29T06:25:48.050Z,12.80
2018-04-29T06:28:15.752Z,12.50
2018-04-29T06:30:43.437Z,12.90
2018-04-29T06:33:11.479Z,13.30
2018-04-29T06:35:39.165Z,13.50
2018-04-29T06:38:09.251Z,13.50
2018-04-29T06:40:36.978Z,13.20
2018-04-29T06:43:04.682Z,13.30
2018-04-29T06:45:32.314Z,13.80
2018-04-29T06:48:00.014Z,13.70
2018-04-29T06:50:27.648Z,14.00
2018-04-29T06:52:56.303Z,14.00
2018-04-29T06:55:24.322Z,14.40
2018-04-29T06:57:54.100Z,14.50
2018-04-29T07:00:22.496Z,14.70
2018-04-29T07:02:50.168Z,14.80
2018-04-29T07:05:18.600Z,15.00
2018-04-29T07:07:46.331Z,15.30
2018-04-29T07:10:14.380Z,15.30
2018-04-29T07:12:42.848Z,15.40
2018-04-29T07:15:10.887Z,15.50
2018-04-29T07:17:41.634Z,15.60
2018-04-29T07:20:09.265Z,15.40
2018-04-29T07:22:39.349Z,15.50
2018-04-29T07:25:07.790Z,15.90
2018-04-29T07:27:40.384Z,16.10
2018-04-29T07:30:09.169Z,16.10
2018-04-29T07:32:47.748Z,16.30
2018-04-29T07:35:15.794Z,16.60
2018-04-29T07:37:44.832Z,16.60
2018-04-29T07:40:12.589Z,16.50
2018-04-29T07:42:46.092Z,16.40
2018-04-29T07:45:13.760Z,16.30
2018-04-29T07:47:43.278Z,16.30
2018-04-29T07:50:10.932Z,16.60
2018-04-29T07:52:40.542Z,16.70
2018-04-29T07:55:08.195Z,16.70
2018-04-29T07:57:35.879Z,16.90
2018-04-29T08:00:03.593Z,17.00
2018-04-29T08:02:31.990Z,17.30
2018-04-29T08:05:00.069Z,17.40
2018-04-29T08:07:29.135Z,17.60
2018-04-29T08:09:57.566Z,17.60
2018-04-29T08:12:26.893Z,17.70
2018-04-29T08:14:54.640Z,17.70
2018-04-29T08:17:25.049Z,18.10
2018-04-29T08:19:52.729Z,18.70
2018-04-29T08:22:21.162Z,18.20
2018-04-29T08:24:49.592Z,18.40
2018-04-29T08:27:19.679Z,18.60
2018-04-29T08:29:48.541Z,18.70
2018-04-29T08:32:17.261Z,18.90
2018-04-29T08:34:44.913Z,19.00
2018-04-29T08:37:20.324Z,19.00
2018-04-29T08:39:48.893Z,19.30
2018-04-29T08:42:17.562Z,19.10
2018-04-29T08:44:45.199Z,19.30
2018-04-29T08:47:12.880Z,19.40
2018-04-29T08:49:41.668Z,19.40
2018-04-29T08:52:11.349Z,20.20
2018-04-29T08:54:40.502Z,20.00
2018-04-29T08:57:08.150Z,20.40
2018-04-29T08:59:36.205Z,20.50
2018-04-29T09:02:04.926Z,20.40
2018-04-29T09:04:32.984Z,19.60
2018-04-29T09:07:03.181Z,19.40
2018-04-29T09:09:31.257Z,19.30
2018-04-29T09:11:59.946Z,19.20
2018-04-29T09:14:27.621Z,19.30
2018-04-29T09:16:56.342Z,18.90
2018-04-29T09:19:24.389Z,19.30
2018-04-29T09:21:52.472Z,19.80
2018-04-29T09:24:20.908Z,20.00
2018-04-29T09:26:48.586Z,20.10
2018-04-29T09:29:17.763Z,20.30
2018-04-29T09:31:47.781Z,20.20
2018-04-29T09:34:15.467Z,20.00
2018-04-29T09:36:43.274Z,19.70
2018-04-29T09:39:11.055Z,19.90
2018-04-29T09:41:39.834Z,19.90
2018-04-29T09:44:07.534Z,20.10
2018-04-29T09:46:36.358Z,19.90
2018-04-29T09:49:04.974Z,20.00
2018-04-29T09:51:33.018Z,20.20
2018-04-29T09:56:29.852Z,20.40
2018-04-29T09:58:59.290Z,20.70
2018-04-29T10:01:26.997Z,21.30
2018-04-29T10:06:24.169Z,21.90
2018-04-29T10:11:21.699Z,22.50
2018-04-29T10:16:19.208Z,21.90
2018-04-29T10:18:47.032Z,21.40
2018-04-29T10:21:15.479Z,21.40
2018-04-29T10:26:12.570Z,21.30
2018-04-29T10:28:41.231Z,21.10
2018-04-29T10:31:10.387Z,21.50
2018-04-29T10:36:08.610Z,22.10
2018-04-29T10:38:37.174Z,22.40
2018-04-29T10:41:04.891Z,21.90
2018-04-29T10:46:03.273Z,22.20
2018-04-29T10:48:31.912Z,22.40
2018-04-29T10:51:00.346Z,22.70
2018-04-29T10:55:58.168Z,23.40
2018-04-29T10:58:27.866Z,23.40
2018-04-29T11:00:55.756Z,23.50
2018-04-29T11:05:52.839Z,22.60
2018-04-29T11:08:21.931Z,22.50
2018-04-29T11:10:50.510Z,22.50
2018-04-29T11:15:47.560Z,22.80
2018-04-29T11:28:13.509Z,23.00
2018-04-29T11:30:41.579Z,23.00
2018-04-29T11:38:08.367Z,24.00
2018-04-29T11:43:05.792Z,23.70
2018-04-29T11:48:03.205Z,23.60
2018-04-29T11:50:30.881Z,24.00
2018-04-29T11:55:27.927Z,23.70
2018-04-29T11:57:57.786Z,24.00
2018-04-29T12:02:55.579Z,23.70
2018-04-29T12:07:53.784Z,23.40
2018-04-29T12:10:22.249Z,23.00
2018-04-29T12:12:49.897Z,23.40
2018-04-29T12:15:17.555Z,23.20
2018-04-29T12:17:45.340Z,23.30
2018-04-29T12:20:13.370Z,23.10
2018-04-29T12:22:41.027Z,23.40
2018-04-29T12:25:08.710Z,22.90
2018-04-29T12:27:36.761Z,22.80
2018-04-29T12:30:04.460Z,22.50
2018-04-29T12:32:32.250Z,23.50
2018-04-29T12:35:00.691Z,23.40
2018-04-29T12:37:30.107Z,23.50
2018-04-29T12:39:57.834Z,24.40
2018-04-29T12:42:27.046Z,24.10
2018-04-29T12:44:55.042Z,24.80
2018-04-29T12:47:23.476Z,24.60
2018-04-29T12:49:51.108Z,24.90
2018-04-29T12:54:49.820Z,24.10
2018-04-29T12:57:18.433Z,23.40
2018-04-29T12:59:46.467Z,24.60
2018-04-29T13:02:16.237Z,24.70
2018-04-29T13:04:44.681Z,25.00
2018-04-29T13:07:14.288Z,24.80
2018-04-29T13:09:42.366Z,24.80
2018-04-29T13:12:11.984Z,24.70
2018-04-29T13:14:39.664Z,25.40
2018-04-29T13:17:08.823Z,25.10
2018-04-29T13:19:36.502Z,25.90
2018-04-29T13:22:06.174Z,25.40
2018-04-29T13:24:35.410Z,25.10
2018-04-29T13:27:09.469Z,25.40
2018-04-29T13:29:38.025Z,25.70
2018-04-29T13:32:07.397Z,26.10
2018-04-29T13:34:35.019Z,26.20
2018-04-29T13:37:04.490Z,26.50
2018-04-29T13:39:33.642Z,26.30
2018-04-29T13:42:02.114Z,26.40
2018-04-29T13:44:31.265Z,26.50
2018-04-29T13:46:58.971Z,26.80
2018-04-29T13:49:27.052Z,26.10
2018-04-29T13:51:54.730Z,26.60
2018-04-29T13:54:23.175Z,25.70
2018-04-29T13:56:51.653Z,25.00
2018-04-29T13:59:19.919Z,25.10
2018-04-29T14:01:50.314Z,24.40
2018-04-29T14:04:17.963Z,24.30
2018-04-29T14:06:46.731Z,24.50
2018-04-29T14:09:14.368Z,23.20
2018-04-29T14:11:44.573Z,23.70
2018-04-29T14:14:13.022Z,23.70
2018-04-29T14:16:41.865Z,23.70
2018-04-29T14:19:10.341Z,23.50
2018-04-29T14:21:38.962Z,23.10
2018-04-29T14:24:07.759Z,23.20
2018-04-29T14:26:35.410Z,23.00
2018-04-29T14:29:05.119Z,22.70
2018-04-29T14:31:33.184Z,22.30
2018-04-29T14:34:01.883Z,22.50
2018-04-29T14:36:30.383Z,22.00
2018-04-29T14:38:59.037Z,22.00
2018-04-29T14:41:27.928Z,22.10
2018-04-29T14:43:56.604Z,21.30
2018-04-29T14:46:25.400Z,22.20
2018-04-29T14:48:55.879Z,22.20
2018-04-29T14:51:24.664Z,22.10
2018-04-29T14:53:53.322Z,22.00
2018-04-29T14:56:21.381Z,21.90
2018-04-29T14:58:49.058Z,21.90
2018-04-29T15:01:17.540Z,22.00
2018-04-29T15:03:47.247Z,22.30
2018-04-29T15:06:15.698Z,22.20
2018-04-29T15:08:43.363Z,22.60
2018-04-29T15:13:40.872Z,22.80
2018-04-29T15:16:09.348Z,23.70
2018-04-29T15:18:48.994Z,24.80
2018-04-29T15:21:18.165Z,25.50
2018-04-29T15:23:45.817Z,26.50
2018-04-29T15:26:13.597Z,26.80
2018-04-29T15:28:42.332Z,26.90
2018-04-29T15:33:40.335Z,25.90
2018-04-29T15:36:08.047Z,25.00
2018-04-29T15:38:36.790Z,24.20
2018-04-29T15:41:05.336Z,23.60
2018-04-29T15:43:34.826Z,23.20
2018-04-29T15:46:02.466Z,22.50
2018-04-29T15:48:31.967Z,22.30
2018-04-29T15:51:00.064Z,22.20
2018-04-29T15:53:28.090Z,22.10
2018-04-29T15:55:56.920Z,22.00
2018-04-29T16:00:53.618Z,21.70
2018-04-29T16:03:21.381Z,22.20
2018-04-29T16:05:49.607Z,21.40
2018-04-29T16:08:18.741Z,21.50
2018-04-29T16:10:46.778Z,21.60
2018-04-29T16:13:21.955Z,21.60
2018-04-29T16:15:50.408Z,21.60
2018-04-29T16:18:18.142Z,21.90
2018-04-29T16:23:16.561Z,23.30
2018-04-29T16:25:44.609Z,24.20
2018-04-29T16:30:41.495Z,25.90
2018-04-29T16:33:09.224Z,26.30
2018-04-29T16:35:36.962Z,25.80
2018-04-29T16:38:17.498Z,25.70
2018-04-29T16:40:46.072Z,25.40
2018-04-29T16:43:14.941Z,25.70
2018-04-29T16:45:42.643Z,26.10
2018-04-29T16:48:11.194Z,26.50
2018-04-29T16:50:38.814Z,26.80
2018-04-29T16:53:07.746Z,25.90
2018-04-29T16:55:35.629Z,25.00
2018-04-29T17:00:35.858Z,23.70
2018-04-29T17:05:32.536Z,23.30
2018-04-29T17:08:02.009Z,23.40
2018-04-29T17:10:29.663Z,23.60
2018-04-29T17:13:02.049Z,24.00
2018-04-29T17:15:31.238Z,24.10
2018-04-29T17:18:00.632Z,23.90
2018-04-29T17:20:28.303Z,24.10
2018-04-29T17:22:58.048Z,24.10
2018-04-29T17:25:26.125Z,23.50
2018-04-29T17:27:54.632Z,23.20
2018-04-29T17:30:23.044Z,22.50
2018-04-29T17:32:52.229Z,22.00
2018-04-29T17:35:20.353Z,21.70
2018-04-29T17:37:50.831Z,21.20
2018-04-29T17:40:18.923Z,21.00
2018-04-29T17:42:46.547Z,21.10
2018-04-29T17:45:14.190Z,20.50
2018-04-29T17:47:42.326Z,20.50
2018-04-29T17:50:09.964Z,20.40
2018-04-29T17:52:38.459Z,20.20
2018-04-29T17:55:06.140Z,19.90
2018-04-29T17:57:35.607Z,20.00
2018-04-29T18:00:03.742Z,19.80
2018-04-29T18:02:32.503Z,20.00
2018-04-29T18:05:01.180Z,19.40
2018-04-29T18:07:28.971Z,19.20
2018-04-29T18:09:57.042Z,19.10
2018-04-29T18:12:24.819Z,19.20
2018-04-29T18:14:52.876Z,19.00
2018-04-29T18:17:24.190Z,18.80
2018-04-29T18:19:52.258Z,18.70
2018-04-29T18:22:19.892Z,18.30
2018-04-29T18:24:47.570Z,19.00
2018-04-29T18:27:16.036Z,18.70
2018-04-29T18:29:44.931Z,18.70
2018-04-29T18:32:15.335Z,18.60
2018-04-29T18:34:44.366Z,18.50
2018-04-29T18:37:12.449Z,18.40
2018-04-29T18:39:40.249Z,18.20
2018-04-29T18:42:08.474Z,18.20
2018-04-29T18:44:36.550Z,18.10
2018-04-29T18:47:07.749Z,18.10
2018-04-29T18:49:36.162Z,18.00
2018-04-29T18:52:07.037Z,18.20
2018-04-29T18:54:35.874Z,17.80
2018-04-29T18:57:04.546Z,17.70
2018-04-29T18:59:32.617Z,17.80
2018-04-29T19:02:02.003Z,17.70
2018-04-29T19:04:29.636Z,17.40
2018-04-29T19:06:57.975Z,17.80
2018-04-29T19:09:26.019Z,17.40
2018-04-29T19:11:54.137Z,17.40
2018-04-29T19:14:21.878Z,18.00
2018-04-29T19:19:19.304Z,17.10
2018-04-29T19:21:47.411Z,17.30
2018-04-29T19:24:15.180Z,17.10
2018-04-29T19:26:43.256Z,16.80
2018-04-29T19:29:11.812Z,17.00
2018-04-29T19:31:39.991Z,16.90
2018-04-29T19:34:08.823Z,16.90
2018-04-29T19:36:37.883Z,16.80
2018-04-29T19:39:05.981Z,16.80
2018-04-29T19:41:33.682Z,16.20
2018-04-29T19:44:01.773Z,16.60
2018-04-29T19:46:29.782Z,16.60
2018-04-29T19:48:58.324Z,16.60
2018-04-29T19:51:27.120Z,16.40
2018-04-29T19:56:25.236Z,16.30
2018-04-29T19:58:52.984Z,16.50
2018-04-29T20:01:21.402Z,16.40
2018-04-29T20:03:49.067Z,16.20
2018-04-29T20:08:53.707Z,16.30
2018-04-29T20:11:22.131Z,16.40
2018-04-29T20:13:49.812Z,16.40
2018-04-29T20:18:46.498Z,16.20
2018-04-29T20:21:14.249Z,16.30
2018-04-29T20:23:43.467Z,16.50
2018-04-29T20:26:13.166Z,16.20
2018-04-29T20:28:42.333Z,16.10
2018-04-29T20:33:39.010Z,15.70
2018-04-29T20:36:06.800Z,16.30
2018-04-29T20:38:34.469Z,15.90
2018-04-29T20:41:02.934Z,15.70
2018-04-29T20:43:32.115Z,15.70
2018-04-29T20:45:59.782Z,15.50
2018-04-29T20:48:28.458Z,15.60
2018-04-29T20:50:56.112Z,15.30
2018-04-29T20:53:23.914Z,15.20
2018-04-29T20:55:51.541Z,15.10
2018-04-29T20:58:19.997Z,15.60
2018-04-29T21:00:48.062Z,15.60
2018-04-29T21:03:16.514Z,15.50
2018-04-29T21:05:45.017Z,15.60
2018-04-29T21:08:15.563Z,15.50
2018-04-29T21:13:13.082Z,15.50
2018-04-29T21:15:41.474Z,15.50
2018-04-29T21:20:41.692Z,15.50
2018-04-29T21:25:39.909Z,15.40
2018-04-29T21:28:08.375Z,15.50
2018-04-29T21:30:36.814Z,15.50
2018-04-29T21:33:06.444Z,15.30
2018-04-29T21:35:34.145Z,15.40
2018-04-29T21:38:03.325Z,15.90
2018-04-29T21:40:32.118Z,15.20
2018-04-29T21:43:01.590Z,15.20
2018-04-29T21:45:29.380Z,15.20
2018-04-29T21:47:57.427Z,15.10
2018-04-29T21:50:25.143Z,15.10
2018-04-29T21:52:52.851Z,15.30
2018-04-29T21:55:20.516Z,15.00
2018-04-29T21:57:49.109Z,15.10
2018-04-29T22:00:18.285Z,15.10
2018-04-29T22:02:48.312Z,15.20
2018-04-29T22:05:15.963Z,14.60
2018-04-29T22:07:44.434Z,15.10
2018-04-29T22:10:13.258Z,15.10
2018-04-29T22:12:41.920Z,15.00
2018-04-29T22:15:10.007Z,15.10
2018-04-29T22:17:38.751Z,14.80
2018-04-29T22:20:06.412Z,14.80
2018-04-29T22:22:38.933Z,15.00
2018-04-29T22:25:07.001Z,15.00
2018-04-29T22:27:36.680Z,15.00
2018-04-29T22:30:04.377Z,14.80
2018-04-29T22:32:33.037Z,14.70
2018-04-29T22:35:01.567Z,15.20
2018-04-29T22:37:30.009Z,15.20
2018-04-29T22:39:57.664Z,15.00
2018-04-29T22:42:26.811Z,15.50
2018-04-29T22:44:55.977Z,15.30
2018-04-29T22:47:29.841Z,15.40
2018-04-29T22:49:57.486Z,15.60
2018-04-29T22:52:25.218Z,15.60
2018-04-29T22:54:53.261Z,15.40
2018-04-29T22:57:21.338Z,15.40
2018-04-29T22:59:49.053Z,15.00
2018-04-29T23:02:19.072Z,15.30
2018-04-29T23:04:47.121Z,15.30
2018-04-29T23:07:19.867Z,15.30
2018-04-29T23:09:47.549Z,14.90
2018-04-29T23:12:15.227Z,15.40
2018-04-29T23:14:43.268Z,15.20
2018-04-29T23:17:10.931Z,15.50
2018-04-29T23:19:38.574Z,15.20
2018-04-29T23:22:13.005Z,15.00
2018-04-29T23:24:41.409Z,15.10
2018-04-29T23:27:10.854Z,15.10
2018-04-29T23:29:39.276Z,15.10
2018-04-29T23:32:07.938Z,14.90
2018-04-29T23:34:36.002Z,15.10
2018-04-29T23:37:04.748Z,15.00
2018-04-29T23:39:33.192Z,15.10
2018-04-29T23:42:09.606Z,15.10
2018-04-29T23:44:37.249Z,15.10
2018-04-29T23:47:06.271Z,15.10
2018-04-29T23:49:34.672Z,15.20
2018-04-29T23:52:02.339Z,15.30
2018-04-29T23:54:29.991Z,15.00
2018-04-29T23:56:58.724Z,15.50
2018-04-29T23:59:26.401Z,15.10
